createdAt,value
2023-02-24T06:05:04.721Z,9.50
2023-02-24T06:10:10.479Z,9.50
2023-02-24T06:15:14.075Z,9.50
2023-02-24T06:20:19.499Z,9.50
2023-02-24T06:25:25.317Z,9.50
2023-02-24T06:30:29.207Z,9.50
2023-02-24T06:35:34.280Z,9.50
2023-02-24T06:40:38.036Z,9.50
2023-02-24T06:45:41.730Z,9.50
2023-02-24T06:50:46.836Z,9.40
2023-02-24T06:55:50.708Z,9.30
2023-02-24T07:00:57.795Z,9.30
2023-02-24T07:06:20.432Z,9.30
2023-02-24T07:11:24.607Z,9.20
2023-02-24T07:16:29.756Z,9.20
2023-02-24T07:21:39.653Z,9.20
2023-02-24T07:26:45.704Z,9.10
2023-02-24T07:31:49.602Z,9.10
2023-02-24T07:36:55.449Z,9.00
2023-02-24T07:41:59.900Z,9.00
2023-02-24T07:47:07.994Z,8.90
2023-02-24T07:52:13.234Z,8.90
2023-02-24T07:57:18.956Z,8.90
2023-02-24T08:02:23.829Z,8.80
2023-02-24T08:07:30.797Z,8.80
2023-02-24T08:12:35.318Z,8.80
2023-02-24T08:17:40.283Z,8.80
2023-02-24T08:22:47.463Z,8.80
2023-02-24T08:28:12.488Z,8.80
2023-02-24T08:33:21.449Z,8.80
2023-02-24T08:38:28.483Z,8.90
2023-02-24T08:43:38.543Z,8.90
2023-02-24T08:48:44.067Z,9.00
2023-02-24T08:53:53.141Z,9.10
2023-02-24T08:58:58.927Z,9.10
2023-02-24T09:04:05.648Z,9.20
2023-02-24T09:09:21.276Z,9.30
2023-02-24T09:14:28.413Z,9.40
2023-02-24T09:20:02.397Z,9.50
2023-02-24T09:25:21.578Z,9.60
2023-02-24T09:30:38.289Z,9.60
2023-02-24T09:35:43.255Z,9.80
2023-02-24T09:40:50.428Z,9.90
2023-02-24T09:45:59.958Z,10.10
2023-02-24T09:51:06.043Z,10.20
2023-02-24T09:56:22.177Z,10.40
2023-02-24T10:01:43.021Z,10.60
2023-02-24T10:06:50.480Z,10.60
2023-02-24T10:12:04.471Z,10.70
2023-02-24T10:17:30.810Z,10.70
2023-02-24T10:22:50.834Z,10.80
2023-02-24T10:28:04.796Z,10.90
2023-02-24T10:33:20.620Z,11.00
2023-02-24T10:38:28.643Z,11.10
2023-02-24T10:43:45.509Z,11.20
2023-02-24T10:49:00.485Z,11.20
2023-02-24T10:54:34.217Z,11.20
2023-02-24T11:00:14.258Z,11.30
2023-02-24T11:05:34.682Z,11.40
2023-02-24T11:10:53.387Z,11.40
2023-02-24T11:16:16.125Z,11.40
2023-02-24T11:21:20.792Z,11.60
2023-02-24T11:26:28.354Z,11.60
2023-02-24T11:32:06.643Z,11.70
2023-02-24T11:37:23.618Z,11.80
2023-02-24T11:42:31.225Z,11.90
2023-02-24T11:47:43.697Z,12.30
2023-02-24T11:52:50.698Z,12.30
2023-02-24T11:57:57.271Z,12.40
2023-02-24T12:03:09.479Z,12.60
2023-02-24T12:08:26.185Z,12.70
2023-02-24T12:13:39.104Z,12.70
2023-02-24T12:18:48.195Z,12.80
2023-02-24T12:23:54.411Z,12.80
2023-02-24T12:29:34.420Z,12.80
2023-02-24T12:34:49.356Z,12.90
2023-02-24T12:40:05.595Z,13.20
2023-02-24T12:45:18.740Z,13.80
2023-02-24T12:50:34.079Z,14.10
2023-02-24T12:55:47.045Z,14.00
2023-02-24T13:01:04.513Z,14.10
2023-02-24T13:06:17.824Z,14.60
2023-02-24T13:11:37.680Z,15.50
2023-02-24T13:16:41.748Z,15.80
2023-02-24T13:21:56.818Z,15.90
2023-02-24T13:27:08.622Z,15.90
2023-02-24T13:32:28.400Z,16.10
2023-02-24T13:37:36.710Z,16.70
2023-02-24T13:42:40.392Z,16.70
2023-02-24T13:48:15.839Z,16.20
2023-02-24T13:53:32.433Z,15.50
2023-02-24T13:58:50.840Z,15.10
2023-02-24T14:04:07.637Z,15.40
2023-02-24T14:09:22.641Z,15.70
2023-02-24T14:14:27.939Z,16.10
2023-02-24T14:19:32.071Z,16.50
2023-02-24T14:24:37.116Z,16.90
2023-02-24T14:29:44.340Z,17.30
2023-02-24T14:34:48.393Z,17.60
2023-02-24T14:39:54.767Z,17.80
2023-02-24T14:45:00.378Z,17.60
2023-02-24T14:50:06.994Z,17.40
2023-02-24T14:55:17.502Z,17.00
2023-02-24T15:00:24.997Z,16.40
2023-02-24T15:05:28.767Z,15.90
2023-02-24T15:10:33.884Z,15.60
2023-02-24T15:15:39.623Z,15.40
2023-02-24T15:20:43.424Z,15.20
2023-02-24T15:25:48.537Z,15.10
2023-02-24T15:31:01.662Z,15.30
2023-02-24T15:36:11.256Z,15.40
2023-02-24T15:41:16.383Z,15.40
2023-02-24T15:46:29.246Z,15.10
2023-02-24T15:51:37.712Z,14.80
2023-02-24T15:56:43.910Z,14.40
2023-02-24T16:01:47.866Z,14.20
2023-02-24T16:06:55.354Z,14.00
2023-02-24T16:12:01.219Z,13.80
2023-02-24T16:17:08.941Z,13.60
2023-02-24T16:22:12.769Z,13.40
2023-02-24T16:27:19.237Z,13.10
2023-02-24T16:32:25.898Z,12.90
2023-02-24T16:37:30.989Z,12.70
2023-02-24T16:42:36.064Z,12.50
2023-02-24T16:47:40.214Z,12.40
2023-02-24T16:52:43.941Z,12.40
2023-02-24T16:57:48.944Z,12.30
2023-02-24T17:02:53.914Z,12.20
2023-02-24T17:07:58.348Z,12.10
2023-02-24T17:13:03.494Z,12.00
2023-02-24T17:18:07.358Z,11.90
2023-02-24T17:23:12.345Z,11.90
2023-02-24T17:28:17.360Z,11.90
2023-02-24T17:33:21.002Z,11.80
2023-02-24T17:38:25.074Z,11.80
2023-02-24T17:43:30.133Z,11.80
2023-02-24T17:48:33.758Z,11.80
2023-02-24T17:53:37.404Z,11.70
2023-02-24T17:58:42.433Z,11.80
2023-02-24T18:03:46.081Z,11.70
2023-02-24T18:08:49.840Z,11.60
2023-02-24T18:14:00.436Z,11.50
2023-02-24T18:19:04.510Z,11.40
2023-02-24T18:24:08.726Z,11.40
2023-02-24T18:29:13.946Z,11.30
2023-02-24T18:34:17.628Z,11.10
2023-02-24T18:39:21.236Z,11.10
2023-02-24T18:44:26.289Z,10.90
2023-02-24T18:49:29.881Z,10.80
2023-02-24T18:54:34.028Z,10.80
2023-02-24T18:59:39.028Z,10.70
2023-02-24T19:04:42.740Z,10.60
2023-02-24T19:09:48.737Z,10.50
2023-02-24T19:14:54.326Z,10.30
2023-02-24T19:19:57.914Z,10.20
2023-02-24T19:25:01.832Z,10.10
2023-02-24T19:30:08.277Z,10.00
2023-02-24T19:35:12.004Z,9.90
2023-02-24T19:40:15.892Z,9.90
2023-02-24T19:45:20.994Z,9.80
2023-02-24T19:50:24.954Z,9.70
2023-02-24T19:55:28.545Z,9.70
2023-02-24T20:00:33.628Z,9.60
2023-02-24T20:05:37.340Z,9.50
2023-02-24T20:10:40.997Z,9.50
2023-02-24T20:15:46.260Z,9.40
2023-02-24T20:20:49.873Z,9.30
2023-02-24T20:25:53.756Z,9.30
2023-02-24T20:31:00.228Z,9.30
2023-02-24T20:36:08.771Z,9.20
2023-02-24T20:41:12.756Z,9.20
2023-02-24T20:46:19.336Z,9.10
2023-02-24T20:51:24.078Z,9.10
2023-02-24T20:56:29.241Z,9.10
2023-02-24T21:01:35.705Z,9.10
2023-02-24T21:06:39.453Z,9.10
2023-02-24T21:11:43.080Z,9.10
2023-02-24T21:16:48.047Z,9.10
2023-02-24T21:21:51.687Z,9.00
2023-02-24T21:26:55.310Z,9.00
2023-02-24T21:32:00.428Z,9.00
2023-02-24T21:37:05.999Z,9.00
2023-02-24T21:42:12.138Z,9.00
2023-02-24T21:47:17.181Z,9.00
2023-02-24T21:52:20.887Z,9.00
2023-02-24T21:57:24.531Z,9.10
2023-02-24T22:02:29.540Z,9.10
2023-02-24T22:07:33.171Z,9.10
2023-02-24T22:12:36.824Z,9.10
2023-02-24T22:17:42.338Z,9.10
2023-02-24T22:22:45.977Z,9.10
2023-02-24T22:27:49.620Z,9.10
2023-02-24T22:32:54.588Z,9.10
2023-02-24T22:37:58.196Z,9.10
2023-02-24T22:43:01.869Z,9.10
2023-02-24T22:48:07.071Z,9.00
2023-02-24T22:53:10.749Z,8.90
2023-02-24T22:58:14.553Z,8.80
2023-02-24T23:03:21.460Z,8.80
2023-02-24T23:08:25.507Z,8.60
2023-02-24T23:13:29.164Z,8.60
2023-02-24T23:18:35.344Z,8.60
2023-02-24T23:23:39.283Z,8.60
2023-02-24T23:28:42.938Z,8.50
